sensor_id;sensor_type;location;lat;lon;timestamp;P1;durP1;ratioP1;P2;durP2;ratioP2
20431;SDS011;10375;49.136;10.366;2022-10-23T00:01:33;9.95;;;4.00;;
20431;SDS011;10375;49.136;10.366;2022-10-23T00:04:14;17.33;;;5.30;;
20431;SDS011;10375;49.136;10.366;2022-10-23T00:06:43;8.18;;;4.03;;
20431;SDS011;10375;49.136;10.366;2022-10-23T00:09:11;10.50;;;4.50;;
20431;SDS011;10375;49.136;10.366;2022-10-23T00:11:41;14.30;;;4.03;;
20431;SDS011;10375;49.136;10.366;2022-10-23T00:14:10;9.57;;;4.47;;
20431;SDS011;10375;49.136;10.366;2022-10-23T00:16:37;7.63;;;3.97;;
20431;SDS011;10375;49.136;10.366;2022-10-23T00:19:04;8.82;;;4.07;;
20431;SDS011;10375;49.136;10.366;2022-10-23T00:21:31;5.97;;;4.03;;
20431;SDS011;10375;49.136;10.366;2022-10-23T00:23:58;7.90;;;3.65;;
20431;SDS011;10375;49.136;10.366;2022-10-23T00:26:25;8.63;;;3.58;;
20431;SDS011;10375;49.136;10.366;2022-10-23T00:28:52;9.50;;;3.83;;
20431;SDS011;10375;49.136;10.366;2022-10-23T00:31:21;5.60;;;3.90;;
20431;SDS011;10375;49.136;10.366;2022-10-23T00:33:49;6.90;;;4.00;;
20431;SDS011;10375;49.136;10.366;2022-10-23T00:36:17;11.18;;;5.10;;
20431;SDS011;10375;49.136;10.366;2022-10-23T00:38:46;65.93;;;5.93;;
20431;SDS011;10375;49.136;10.366;2022-10-23T00:41:15;83.28;;;6.85;;
20431;SDS011;10375;49.136;10.366;2022-10-23T00:46:27;92.75;;;7.78;;
20431;SDS011;10375;49.136;10.366;2022-10-23T00:48:54;78.25;;;6.60;;
20431;SDS011;10375;49.136;10.366;2022-10-23T00:51:22;4.72;;;3.85;;
20431;SDS011;10375;49.136;10.366;2022-10-23T00:53:51;21.05;;;4.93;;
20431;SDS011;10375;49.136;10.366;2022-10-23T00:56:43;17.52;;;3.85;;
20431;SDS011;10375;49.136;10.366;2022-10-23T00:59:11;10.77;;;3.63;;
20431;SDS011;10375;49.136;10.366;2022-10-23T01:01:38;23.25;;;4.90;;
20431;SDS011;10375;49.136;10.366;2022-10-23T01:04:06;6.88;;;4.35;;
20431;SDS011;10375;49.136;10.366;2022-10-23T01:06:54;18.55;;;4.30;;
20431;SDS011;10375;49.136;10.366;2022-10-23T01:12:15;17.15;;;4.47;;
20431;SDS011;10375;49.136;10.366;2022-10-23T01:17:30;28.27;;;4.22;;
20431;SDS011;10375;49.136;10.366;2022-10-23T01:25:44;19.73;;;4.13;;
20431;SDS011;10375;49.136;10.366;2022-10-23T01:28:24;37.78;;;4.53;;
20431;SDS011;10375;49.136;10.366;2022-10-23T01:30:56;25.80;;;4.57;;
20431;SDS011;10375;49.136;10.366;2022-10-23T01:33:26;39.05;;;4.65;;
20431;SDS011;10375;49.136;10.366;2022-10-23T01:36:02;12.60;;;4.38;;
20431;SDS011;10375;49.136;10.366;2022-10-23T01:41:19;6.47;;;4.25;;
20431;SDS011;10375;49.136;10.366;2022-10-23T01:44:22;14.48;;;4.65;;
20431;SDS011;10375;49.136;10.366;2022-10-23T01:46:53;54.03;;;6.28;;
20431;SDS011;10375;49.136;10.366;2022-10-23T01:49:21;13.40;;;4.68;;
20431;SDS011;10375;49.136;10.366;2022-10-23T01:51:50;6.80;;;4.22;;
20431;SDS011;10375;49.136;10.366;2022-10-23T01:54:24;63.25;;;6.10;;
20431;SDS011;10375;49.136;10.366;2022-10-23T01:56:55;46.97;;;5.47;;
20431;SDS011;10375;49.136;10.366;2022-10-23T01:59:26;11.77;;;5.38;;
20431;SDS011;10375;49.136;10.366;2022-10-23T02:01:58;57.10;;;6.20;;
20431;SDS011;10375;49.136;10.366;2022-10-23T02:04:29;18.65;;;5.50;;
20431;SDS011;10375;49.136;10.366;2022-10-23T02:07:01;8.07;;;5.32;;
20431;SDS011;10375;49.136;10.366;2022-10-23T02:09:28;16.08;;;5.38;;
20431;SDS011;10375;49.136;10.366;2022-10-23T02:12:02;254.38;;;16.45;;
20431;SDS011;10375;49.136;10.366;2022-10-23T02:17:35;29.23;;;6.47;;
20431;SDS011;10375;49.136;10.366;2022-10-23T02:20:20;18.77;;;5.40;;
20431;SDS011;10375;49.136;10.366;2022-10-23T02:22:56;7.82;;;5.03;;
20431;SDS011;10375;49.136;10.366;2022-10-23T02:25:57;12.18;;;5.05;;
20431;SDS011;10375;49.136;10.366;2022-10-23T02:29:13;11.88;;;5.28;;
20431;SDS011;10375;49.136;10.366;2022-10-23T02:31:21;24.42;;;5.93;;
20431;SDS011;10375;49.136;10.366;2022-10-23T02:33:49;13.30;;;4.55;;
20431;SDS011;10375;49.136;10.366;2022-10-23T02:36:17;13.48;;;4.90;;
20431;SDS011;10375;49.136;10.366;2022-10-23T02:38:45;11.00;;;5.10;;
20431;SDS011;10375;49.136;10.366;2022-10-23T02:47:18;12.48;;;5.28;;
20431;SDS011;10375;49.136;10.366;2022-10-23T02:55:58;5.90;;;4.78;;
20431;SDS011;10375;49.136;10.366;2022-10-23T03:02:19;9.67;;;5.80;;
20431;SDS011;10375;49.136;10.366;2022-10-23T03:04:23;9.05;;;4.47;;
20431;SDS011;10375;49.136;10.366;2022-10-23T03:06:53;14.32;;;4.68;;
20431;SDS011;10375;49.136;10.366;2022-10-23T03:09:21;5.90;;;4.33;;
20431;SDS011;10375;49.136;10.366;2022-10-23T03:11:48;17.63;;;5.67;;
20431;SDS011;10375;49.136;10.366;2022-10-23T03:14:15;12.73;;;5.27;;
20431;SDS011;10375;49.136;10.366;2022-10-23T03:16:42;6.97;;;4.68;;
20431;SDS011;10375;49.136;10.366;2022-10-23T03:19:10;8.82;;;5.28;;
20431;SDS011;10375;49.136;10.366;2022-10-23T03:21:37;14.25;;;6.68;;
20431;SDS011;10375;49.136;10.366;2022-10-23T03:24:04;11.27;;;5.10;;
20431;SDS011;10375;49.136;10.366;2022-10-23T03:26:31;13.93;;;5.18;;
20431;SDS011;10375;49.136;10.366;2022-10-23T03:28:58;6.60;;;5.30;;
20431;SDS011;10375;49.136;10.366;2022-10-23T03:31:25;7.43;;;5.28;;
20431;SDS011;10375;49.136;10.366;2022-10-23T03:33:52;8.32;;;4.80;;
20431;SDS011;10375;49.136;10.366;2022-10-23T03:36:19;12.13;;;5.55;;
20431;SDS011;10375;49.136;10.366;2022-10-23T03:38:46;11.25;;;6.25;;
20431;SDS011;10375;49.136;10.366;2022-10-23T03:41:13;15.55;;;4.93;;
20431;SDS011;10375;49.136;10.366;2022-10-23T03:43:40;8.43;;;4.90;;
20431;SDS011;10375;49.136;10.366;2022-10-23T03:46:07;14.30;;;5.67;;
20431;SDS011;10375;49.136;10.366;2022-10-23T03:48:37;17.88;;;5.35;;
20431;SDS011;10375;49.136;10.366;2022-10-23T03:51:04;7.85;;;5.32;;
20431;SDS011;10375;49.136;10.366;2022-10-23T03:53:32;8.13;;;5.40;;
20431;SDS011;10375;49.136;10.366;2022-10-23T03:55:59;19.87;;;5.87;;
20431;SDS011;10375;49.136;10.366;2022-10-23T03:58:26;9.90;;;5.47;;
20431;SDS011;10375;49.136;10.366;2022-10-23T04:00:53;10.85;;;5.72;;
20431;SDS011;10375;49.136;10.366;2022-10-23T04:03:20;11.37;;;5.70;;
20431;SDS011;10375;49.136;10.366;2022-10-23T04:05:47;13.30;;;5.57;;
20431;SDS011;10375;49.136;10.366;2022-10-23T04:08:17;14.13;;;5.57;;
20431;SDS011;10375;49.136;10.366;2022-10-23T04:10:45;8.13;;;4.97;;
20431;SDS011;10375;49.136;10.366;2022-10-23T04:13:12;15.93;;;5.70;;
20431;SDS011;10375;49.136;10.366;2022-10-23T04:15:39;11.73;;;5.68;;
20431;SDS011;10375;49.136;10.366;2022-10-23T04:18:06;18.00;;;5.67;;
20431;SDS011;10375;49.136;10.366;2022-10-23T04:20:33;15.53;;;5.43;;
20431;SDS011;10375;49.136;10.366;2022-10-23T04:23:00;8.80;;;6.00;;
20431;SDS011;10375;49.136;10.366;2022-10-23T04:25:27;17.10;;;5.65;;
20431;SDS011;10375;49.136;10.366;2022-10-23T04:27:54;13.47;;;5.57;;
20431;SDS011;10375;49.136;10.366;2022-10-23T04:30:21;22.90;;;6.10;;
20431;SDS011;10375;49.136;10.366;2022-10-23T04:32:51;39.67;;;7.37;;
20431;SDS011;10375;49.136;10.366;2022-10-23T04:35:18;7.10;;;4.73;;
20431;SDS011;10375;49.136;10.366;2022-10-23T04:37:45;11.88;;;4.78;;
20431;SDS011;10375;49.136;10.366;2022-10-23T04:40:12;9.48;;;4.60;;
20431;SDS011;10375;49.136;10.366;2022-10-23T04:42:40;11.55;;;4.53;;
20431;SDS011;10375;49.136;10.366;2022-10-23T04:45:07;12.67;;;6.37;;
20431;SDS011;10375;49.136;10.366;2022-10-23T04:47:35;6.80;;;5.27;;
20431;SDS011;10375;49.136;10.366;2022-10-23T04:50:02;13.73;;;4.80;;
20431;SDS011;10375;49.136;10.366;2022-10-23T04:52:29;21.53;;;10.10;;
20431;SDS011;10375;49.136;10.366;2022-10-23T04:54:56;24.83;;;11.38;;
20431;SDS011;10375;49.136;10.366;2022-10-23T04:57:23;31.73;;;21.57;;
20431;SDS011;10375;49.136;10.366;2022-10-23T04:59:50;50.63;;;25.73;;
20431;SDS011;10375;49.136;10.366;2022-10-23T05:02:17;45.00;;;26.63;;
20431;SDS011;10375;49.136;10.366;2022-10-23T05:04:44;50.23;;;25.80;;
20431;SDS011;10375;49.136;10.366;2022-10-23T05:07:11;39.38;;;16.90;;
20431;SDS011;10375;49.136;10.366;2022-10-23T05:09:38;26.40;;;9.65;;
20431;SDS011;10375;49.136;10.366;2022-10-23T05:12:05;22.40;;;6.73;;
20431;SDS011;10375;49.136;10.366;2022-10-23T05:14:32;14.40;;;7.20;;
20431;SDS011;10375;49.136;10.366;2022-10-23T05:17:03;15.98;;;6.80;;
20431;SDS011;10375;49.136;10.366;2022-10-23T05:19:38;18.00;;;6.72;;
20431;SDS011;10375;49.136;10.366;2022-10-23T05:22:13;21.13;;;6.37;;
20431;SDS011;10375;49.136;10.366;2022-10-23T05:24:40;31.63;;;6.28;;
20431;SDS011;10375;49.136;10.366;2022-10-23T05:27:12;40.63;;;6.77;;
20431;SDS011;10375;49.136;10.366;2022-10-23T05:29:39;59.53;;;8.57;;
20431;SDS011;10375;49.136;10.366;2022-10-23T05:32:06;24.83;;;5.37;;
20431;SDS011;10375;49.136;10.366;2022-10-23T05:34:35;34.05;;;7.28;;
20431;SDS011;10375;49.136;10.366;2022-10-23T05:37:04;14.77;;;4.93;;
20431;SDS011;10375;49.136;10.366;2022-10-23T05:39:33;26.10;;;5.87;;
20431;SDS011;10375;49.136;10.366;2022-10-23T05:42:00;16.03;;;6.00;;
20431;SDS011;10375;49.136;10.366;2022-10-23T05:44:28;28.20;;;6.10;;
20431;SDS011;10375;49.136;10.366;2022-10-23T05:46:55;38.10;;;6.63;;
20431;SDS011;10375;49.136;10.366;2022-10-23T05:49:23;14.47;;;5.20;;
20431;SDS011;10375;49.136;10.366;2022-10-23T05:51:50;17.77;;;5.90;;
20431;SDS011;10375;49.136;10.366;2022-10-23T05:54:17;20.57;;;5.97;;
20431;SDS011;10375;49.136;10.366;2022-10-23T05:56:45;44.30;;;6.23;;
20431;SDS011;10375;49.136;10.366;2022-10-23T05:59:11;12.77;;;5.13;;
20431;SDS011;10375;49.136;10.366;2022-10-23T06:01:39;10.77;;;4.32;;
20431;SDS011;10375;49.136;10.366;2022-10-23T06:04:06;121.23;;;13.07;;
20431;SDS011;10375;49.136;10.366;2022-10-23T06:06:33;49.40;;;8.32;;
20431;SDS011;10375;49.136;10.366;2022-10-23T06:09:02;43.33;;;9.93;;
20431;SDS011;10375;49.136;10.366;2022-10-23T06:11:29;13.33;;;5.20;;
20431;SDS011;10375;49.136;10.366;2022-10-23T06:13:56;34.38;;;6.40;;
20431;SDS011;10375;49.136;10.366;2022-10-23T06:16:26;16.70;;;5.53;;
20431;SDS011;10375;49.136;10.366;2022-10-23T06:18:53;12.13;;;5.03;;
20431;SDS011;10375;49.136;10.366;2022-10-23T06:21:21;36.20;;;5.97;;
20431;SDS011;10375;49.136;10.366;2022-10-23T06:23:48;37.27;;;5.40;;
20431;SDS011;10375;49.136;10.366;2022-10-23T06:26:15;8.38;;;4.18;;
20431;SDS011;10375;49.136;10.366;2022-10-23T06:28:44;23.52;;;4.90;;
20431;SDS011;10375;49.136;10.366;2022-10-23T06:31:12;44.22;;;7.95;;
20431;SDS011;10375;49.136;10.366;2022-10-23T06:33:40;16.67;;;6.05;;
20431;SDS011;10375;49.136;10.366;2022-10-23T06:36:07;14.50;;;4.60;;
20431;SDS011;10375;49.136;10.366;2022-10-23T06:38:36;22.30;;;5.88;;
20431;SDS011;10375;49.136;10.366;2022-10-23T06:41:13;13.68;;;4.32;;
20431;SDS011;10375;49.136;10.366;2022-10-23T06:43:42;39.72;;;5.63;;
20431;SDS011;10375;49.136;10.366;2022-10-23T06:46:09;13.93;;;4.15;;
20431;SDS011;10375;49.136;10.366;2022-10-23T06:48:37;15.57;;;5.07;;
20431;SDS011;10375;49.136;10.366;2022-10-23T06:51:05;12.00;;;4.45;;
20431;SDS011;10375;49.136;10.366;2022-10-23T06:53:34;5.25;;;4.05;;
20431;SDS011;10375;49.136;10.366;2022-10-23T06:56:02;7.97;;;4.70;;
20431;SDS011;10375;49.136;10.366;2022-10-23T06:58:31;10.77;;;4.45;;
20431;SDS011;10375;49.136;10.366;2022-10-23T07:01:00;6.68;;;4.53;;
20431;SDS011;10375;49.136;10.366;2022-10-23T07:03:28;8.88;;;5.03;;
20431;SDS011;10375;49.136;10.366;2022-10-23T07:05:58;14.70;;;5.63;;
20431;SDS011;10375;49.136;10.366;2022-10-23T07:08:27;12.80;;;5.80;;
20431;SDS011;10375;49.136;10.366;2022-10-23T07:10:54;4.93;;;4.15;;
20431;SDS011;10375;49.136;10.366;2022-10-23T07:13:22;4.97;;;4.30;;
20431;SDS011;10375;49.136;10.366;2022-10-23T07:15:50;7.20;;;3.67;;
20431;SDS011;10375;49.136;10.366;2022-10-23T07:18:17;11.93;;;4.30;;
20431;SDS011;10375;49.136;10.366;2022-10-23T07:20:44;17.25;;;4.60;;
20431;SDS011;10375;49.136;10.366;2022-10-23T07:23:16;18.70;;;6.90;;
20431;SDS011;10375;49.136;10.366;2022-10-23T07:25:43;11.38;;;4.18;;
20431;SDS011;10375;49.136;10.366;2022-10-23T07:28:10;13.95;;;4.68;;
20431;SDS011;10375;49.136;10.366;2022-10-23T07:30:37;13.75;;;4.30;;
20431;SDS011;10375;49.136;10.366;2022-10-23T07:33:06;13.85;;;4.15;;
20431;SDS011;10375;49.136;10.366;2022-10-23T07:35:33;20.23;;;4.50;;
20431;SDS011;10375;49.136;10.366;2022-10-23T07:38:04;11.38;;;4.63;;
20431;SDS011;10375;49.136;10.366;2022-10-23T07:40:31;4.75;;;3.10;;
20431;SDS011;10375;49.136;10.366;2022-10-23T07:42:58;4.32;;;3.20;;
20431;SDS011;10375;49.136;10.366;2022-10-23T07:45:25;20.02;;;3.17;;
20431;SDS011;10375;49.136;10.366;2022-10-23T07:47:52;8.48;;;3.53;;
20431;SDS011;10375;49.136;10.366;2022-10-23T07:50:19;4.85;;;2.80;;
20431;SDS011;10375;49.136;10.366;2022-10-23T07:52:46;4.88;;;3.28;;
20431;SDS011;10375;49.136;10.366;2022-10-23T07:55:13;4.72;;;3.10;;
20431;SDS011;10375;49.136;10.366;2022-10-23T07:57:40;5.57;;;3.38;;
20431;SDS011;10375;49.136;10.366;2022-10-23T08:00:08;7.57;;;2.97;;
20431;SDS011;10375;49.136;10.366;2022-10-23T08:02:36;6.85;;;2.85;;
20431;SDS011;10375;49.136;10.366;2022-10-23T08:05:03;9.25;;;3.25;;
20431;SDS011;10375;49.136;10.366;2022-10-23T08:07:30;4.43;;;2.92;;
20431;SDS011;10375;49.136;10.366;2022-10-23T08:09:58;3.40;;;2.50;;
20431;SDS011;10375;49.136;10.366;2022-10-23T08:12:25;3.50;;;2.55;;
20431;SDS011;10375;49.136;10.366;2022-10-23T08:14:53;8.75;;;3.20;;
20431;SDS011;10375;49.136;10.366;2022-10-23T08:17:20;12.50;;;3.10;;
20431;SDS011;10375;49.136;10.366;2022-10-23T08:19:52;14.23;;;2.70;;
20431;SDS011;10375;49.136;10.366;2022-10-23T08:22:20;7.57;;;2.88;;
20431;SDS011;10375;49.136;10.366;2022-10-23T08:24:47;3.30;;;2.60;;
20431;SDS011;10375;49.136;10.366;2022-10-23T08:27:15;4.38;;;2.45;;
20431;SDS011;10375;49.136;10.366;2022-10-23T08:29:42;5.47;;;2.78;;
20431;SDS011;10375;49.136;10.366;2022-10-23T08:32:09;6.45;;;2.28;;
20431;SDS011;10375;49.136;10.366;2022-10-23T08:34:37;13.95;;;3.05;;
20431;SDS011;10375;49.136;10.366;2022-10-23T08:37:05;4.75;;;2.40;;
20431;SDS011;10375;49.136;10.366;2022-10-23T08:39:33;28.20;;;3.78;;
20431;SDS011;10375;49.136;10.366;2022-10-23T08:41:59;13.63;;;2.95;;
20431;SDS011;10375;49.136;10.366;2022-10-23T08:44:45;25.67;;;3.95;;
20431;SDS011;10375;49.136;10.366;2022-10-23T08:47:46;6.35;;;2.60;;
20431;SDS011;10375;49.136;10.366;2022-10-23T08:50:24;8.90;;;2.75;;
20431;SDS011;10375;49.136;10.366;2022-10-23T08:55:30;6.60;;;2.33;;
20431;SDS011;10375;49.136;10.366;2022-10-23T08:58:09;3.95;;;2.40;;
20431;SDS011;10375;49.136;10.366;2022-10-23T09:00:49;11.52;;;2.38;;
20431;SDS011;10375;49.136;10.366;2022-10-23T09:03:17;27.38;;;3.08;;
20431;SDS011;10375;49.136;10.366;2022-10-23T09:08:29;14.98;;;3.45;;
20431;SDS011;10375;49.136;10.366;2022-10-23T09:11:19;16.83;;;2.53;;
20431;SDS011;10375;49.136;10.366;2022-10-23T09:16:55;11.82;;;2.42;;
20431;SDS011;10375;49.136;10.366;2022-10-23T09:19:28;3.10;;;1.90;;
20431;SDS011;10375;49.136;10.366;2022-10-23T09:21:56;4.65;;;1.85;;
20431;SDS011;10375;49.136;10.366;2022-10-23T09:24:25;10.20;;;2.10;;
20431;SDS011;10375;49.136;10.366;2022-10-23T09:26:57;7.90;;;2.38;;
20431;SDS011;10375;49.136;10.366;2022-10-23T09:29:30;6.30;;;2.22;;
20431;SDS011;10375;49.136;10.366;2022-10-23T09:32:02;18.35;;;3.05;;
20431;SDS011;10375;49.136;10.366;2022-10-23T09:34:32;4.88;;;2.00;;
20431;SDS011;10375;49.136;10.366;2022-10-23T09:37:01;3.30;;;1.85;;
20431;SDS011;10375;49.136;10.366;2022-10-23T09:39:47;23.23;;;3.40;;
20431;SDS011;10375;49.136;10.366;2022-10-23T09:42:24;5.88;;;2.03;;
20431;SDS011;10375;49.136;10.366;2022-10-23T09:44:52;4.88;;;1.90;;
20431;SDS011;10375;49.136;10.366;2022-10-23T09:47:21;7.28;;;2.17;;
20431;SDS011;10375;49.136;10.366;2022-10-23T09:49:54;8.55;;;2.47;;
20431;SDS011;10375;49.136;10.366;2022-10-23T09:52:34;18.52;;;3.58;;
20431;SDS011;10375;49.136;10.366;2022-10-23T09:55:16;19.42;;;2.72;;
20431;SDS011;10375;49.136;10.366;2022-10-23T09:57:45;18.10;;;2.08;;
20431;SDS011;10375;49.136;10.366;2022-10-23T10:02:56;36.40;;;4.20;;
20431;SDS011;10375;49.136;10.366;2022-10-23T10:05:26;4.50;;;1.77;;
20431;SDS011;10375;49.136;10.366;2022-10-23T10:07:55;2.33;;;2.08;;
20431;SDS011;10375;49.136;10.366;2022-10-23T10:10:35;2.70;;;1.90;;
20431;SDS011;10375;49.136;10.366;2022-10-23T10:13:28;4.15;;;1.90;;
20431;SDS011;10375;49.136;10.366;2022-10-23T10:15:58;3.35;;;2.10;;
20431;SDS011;10375;49.136;10.366;2022-10-23T10:18:57;8.07;;;2.17;;
20431;SDS011;10375;49.136;10.366;2022-10-23T10:21:51;3.58;;;1.92;;
20431;SDS011;10375;49.136;10.366;2022-10-23T10:24:31;3.92;;;2.05;;
20431;SDS011;10375;49.136;10.366;2022-10-23T10:27:08;4.07;;;2.00;;
20431;SDS011;10375;49.136;10.366;2022-10-23T10:32:44;5.07;;;2.00;;
20431;SDS011;10375;49.136;10.366;2022-10-23T10:38:35;2.67;;;1.83;;
20431;SDS011;10375;49.136;10.366;2022-10-23T10:44:23;15.93;;;2.42;;
20431;SDS011;10375;49.136;10.366;2022-10-23T10:52:22;3.03;;;1.50;;
20431;SDS011;10375;49.136;10.366;2022-10-23T10:55:02;3.45;;;1.98;;
20431;SDS011;10375;49.136;10.366;2022-10-23T10:57:46;7.13;;;1.50;;
20431;SDS011;10375;49.136;10.366;2022-10-23T11:00:21;2.08;;;1.63;;
20431;SDS011;10375;49.136;10.366;2022-10-23T11:02:50;1.83;;;1.52;;
20431;SDS011;10375;49.136;10.366;2022-10-23T11:05:30;5.22;;;2.15;;
20431;SDS011;10375;49.136;10.366;2022-10-23T11:08:10;7.22;;;2.20;;
20431;SDS011;10375;49.136;10.366;2022-10-23T11:10:55;2.08;;;1.58;;
20431;SDS011;10375;49.136;10.366;2022-10-23T11:13:26;4.32;;;1.85;;
20431;SDS011;10375;49.136;10.366;2022-10-23T11:16:01;2.20;;;1.50;;
20431;SDS011;10375;49.136;10.366;2022-10-23T11:18:36;2.15;;;1.48;;
20431;SDS011;10375;49.136;10.366;2022-10-23T11:29:54;1.98;;;1.40;;
20431;SDS011;10375;49.136;10.366;2022-10-23T11:38:40;4.85;;;1.95;;
20431;SDS011;10375;49.136;10.366;2022-10-23T11:43:53;1.80;;;1.45;;
20431;SDS011;10375;49.136;10.366;2022-10-23T11:48:52;11.43;;;1.60;;
20431;SDS011;10375;49.136;10.366;2022-10-23T11:51:28;17.13;;;1.92;;
20431;SDS011;10375;49.136;10.366;2022-10-23T11:56:37;2.45;;;1.30;;
20431;SDS011;10375;49.136;10.366;2022-10-23T12:01:58;6.00;;;1.60;;
20431;SDS011;10375;49.136;10.366;2022-10-23T12:04:44;1.83;;;1.30;;
20431;SDS011;10375;49.136;10.366;2022-10-23T12:09:55;175.85;;;11.60;;
20431;SDS011;10375;49.136;10.366;2022-10-23T12:14:52;4.47;;;2.10;;
20431;SDS011;10375;49.136;10.366;2022-10-23T12:17:35;11.13;;;1.55;;
20431;SDS011;10375;49.136;10.366;2022-10-23T12:22:57;8.05;;;1.38;;
20431;SDS011;10375;49.136;10.366;2022-10-23T12:28:58;9.88;;;2.40;;
20431;SDS011;10375;49.136;10.366;2022-10-23T12:31:54;2.35;;;1.58;;
20431;SDS011;10375;49.136;10.366;2022-10-23T12:34:58;20.13;;;2.10;;
20431;SDS011;10375;49.136;10.366;2022-10-23T12:37:49;6.47;;;1.50;;
20431;SDS011;10375;49.136;10.366;2022-10-23T12:40:35;3.65;;;1.20;;
20431;SDS011;10375;49.136;10.366;2022-10-23T12:43:15;3.33;;;1.40;;
20431;SDS011;10375;49.136;10.366;2022-10-23T12:45:48;3.85;;;1.42;;
20431;SDS011;10375;49.136;10.366;2022-10-23T12:48:20;155.32;;;10.68;;
20431;SDS011;10375;49.136;10.366;2022-10-23T12:50:51;150.70;;;11.85;;
20431;SDS011;10375;49.136;10.366;2022-10-23T12:53:20;25.08;;;3.53;;
20431;SDS011;10375;49.136;10.366;2022-10-23T12:55:58;112.93;;;9.20;;
20431;SDS011;10375;49.136;10.366;2022-10-23T12:58:30;9.57;;;1.67;;
20431;SDS011;10375;49.136;10.366;2022-10-23T13:01:01;37.70;;;2.95;;
20431;SDS011;10375;49.136;10.366;2022-10-23T13:03:36;15.25;;;2.13;;
20431;SDS011;10375;49.136;10.366;2022-10-23T13:06:04;4.78;;;1.60;;
20431;SDS011;10375;49.136;10.366;2022-10-23T13:08:33;2.28;;;1.50;;
20431;SDS011;10375;49.136;10.366;2022-10-23T13:11:05;2.15;;;1.27;;
20431;SDS011;10375;49.136;10.366;2022-10-23T13:13:39;45.28;;;4.50;;
20431;SDS011;10375;49.136;10.366;2022-10-23T13:16:15;63.20;;;5.70;;
20431;SDS011;10375;49.136;10.366;2022-10-23T13:18:46;5.43;;;1.60;;
20431;SDS011;10375;49.136;10.366;2022-10-23T13:21:18;3.53;;;1.67;;
20431;SDS011;10375;49.136;10.366;2022-10-23T13:23:47;4.07;;;1.60;;
20431;SDS011;10375;49.136;10.366;2022-10-23T13:26:30;1.92;;;1.55;;
20431;SDS011;10375;49.136;10.366;2022-10-23T13:28:59;5.43;;;1.70;;
20431;SDS011;10375;49.136;10.366;2022-10-23T13:31:34;4.25;;;1.92;;
20431;SDS011;10375;49.136;10.366;2022-10-23T13:34:04;3.85;;;1.95;;
20431;SDS011;10375;49.136;10.366;2022-10-23T13:36:47;3.63;;;1.70;;
20431;SDS011;10375;49.136;10.366;2022-10-23T13:39:26;41.42;;;3.90;;
20431;SDS011;10375;49.136;10.366;2022-10-23T13:42:05;87.90;;;8.80;;
20431;SDS011;10375;49.136;10.366;2022-10-23T13:44:37;15.80;;;3.03;;
20431;SDS011;10375;49.136;10.366;2022-10-23T13:47:07;22.48;;;3.13;;
20431;SDS011;10375;49.136;10.366;2022-10-23T13:49:39;53.92;;;4.25;;
20431;SDS011;10375;49.136;10.366;2022-10-23T13:52:08;1.85;;;1.50;;
20431;SDS011;10375;49.136;10.366;2022-10-23T13:54:38;25.50;;;3.08;;
20431;SDS011;10375;49.136;10.366;2022-10-23T13:57:05;38.72;;;4.43;;
20431;SDS011;10375;49.136;10.366;2022-10-23T13:59:38;48.33;;;4.25;;
20431;SDS011;10375;49.136;10.366;2022-10-23T14:02:26;13.43;;;1.98;;
20431;SDS011;10375;49.136;10.366;2022-10-23T14:04:53;4.70;;;1.70;;
20431;SDS011;10375;49.136;10.366;2022-10-23T14:07:20;2.80;;;1.80;;
20431;SDS011;10375;49.136;10.366;2022-10-23T14:09:47;46.08;;;3.70;;
20431;SDS011;10375;49.136;10.366;2022-10-23T14:12:15;29.38;;;2.85;;
20431;SDS011;10375;49.136;10.366;2022-10-23T14:14:43;43.10;;;3.92;;
20431;SDS011;10375;49.136;10.366;2022-10-23T14:17:10;12.48;;;3.22;;
20431;SDS011;10375;49.136;10.366;2022-10-23T14:19:37;2.88;;;1.65;;
20431;SDS011;10375;49.136;10.366;2022-10-23T14:22:04;4.85;;;2.20;;
20431;SDS011;10375;49.136;10.366;2022-10-23T14:24:31;9.45;;;3.13;;
20431;SDS011;10375;49.136;10.366;2022-10-23T14:26:58;4.45;;;1.80;;
20431;SDS011;10375;49.136;10.366;2022-10-23T14:29:25;8.45;;;1.95;;
20431;SDS011;10375;49.136;10.366;2022-10-23T14:31:52;13.77;;;2.20;;
20431;SDS011;10375;49.136;10.366;2022-10-23T14:34:19;6.38;;;1.63;;
20431;SDS011;10375;49.136;10.366;2022-10-23T14:36:46;9.55;;;2.47;;
20431;SDS011;10375;49.136;10.366;2022-10-23T14:39:29;18.02;;;2.83;;
20431;SDS011;10375;49.136;10.366;2022-10-23T14:41:56;28.25;;;3.17;;
20431;SDS011;10375;49.136;10.366;2022-10-23T14:44:23;2.75;;;1.67;;
20431;SDS011;10375;49.136;10.366;2022-10-23T14:46:51;5.43;;;2.00;;
20431;SDS011;10375;49.136;10.366;2022-10-23T14:49:18;35.72;;;4.05;;
20431;SDS011;10375;49.136;10.366;2022-10-23T14:51:45;13.00;;;2.42;;
20431;SDS011;10375;49.136;10.366;2022-10-23T14:54:12;62.05;;;5.88;;
20431;SDS011;10375;49.136;10.366;2022-10-23T14:56:41;16.13;;;2.42;;
20431;SDS011;10375;49.136;10.366;2022-10-23T14:59:08;99.00;;;7.40;;
20431;SDS011;10375;49.136;10.366;2022-10-23T15:01:37;77.20;;;8.65;;
20431;SDS011;10375;49.136;10.366;2022-10-23T15:04:11;5.38;;;1.70;;
20431;SDS011;10375;49.136;10.366;2022-10-23T15:06:40;8.32;;;1.83;;
20431;SDS011;10375;49.136;10.366;2022-10-23T15:09:08;12.65;;;2.78;;
20431;SDS011;10375;49.136;10.366;2022-10-23T15:11:35;6.88;;;1.70;;
20431;SDS011;10375;49.136;10.366;2022-10-23T15:14:02;5.03;;;1.73;;
20431;SDS011;10375;49.136;10.366;2022-10-23T15:16:29;3.97;;;1.98;;
20431;SDS011;10375;49.136;10.366;2022-10-23T15:18:57;6.88;;;1.75;;
20431;SDS011;10375;49.136;10.366;2022-10-23T15:21:24;3.42;;;2.13;;
20431;SDS011;10375;49.136;10.366;2022-10-23T15:23:51;14.63;;;3.53;;
20431;SDS011;10375;49.136;10.366;2022-10-23T15:26:20;17.25;;;2.88;;
20431;SDS011;10375;49.136;10.366;2022-10-23T15:28:52;5.45;;;1.67;;
20431;SDS011;10375;49.136;10.366;2022-10-23T15:31:38;41.72;;;4.28;;
20431;SDS011;10375;49.136;10.366;2022-10-23T15:34:07;12.73;;;2.40;;
20431;SDS011;10375;49.136;10.366;2022-10-23T15:36:36;42.72;;;5.80;;
20431;SDS011;10375;49.136;10.366;2022-10-23T15:39:07;412.55;;;30.63;;
20431;SDS011;10375;49.136;10.366;2022-10-23T15:41:35;22.20;;;4.22;;
20431;SDS011;10375;49.136;10.366;2022-10-23T15:44:04;9.48;;;2.67;;
20431;SDS011;10375;49.136;10.366;2022-10-23T15:46:32;3.15;;;2.00;;
20431;SDS011;10375;49.136;10.366;2022-10-23T15:48:59;11.40;;;2.63;;
20431;SDS011;10375;49.136;10.366;2022-10-23T15:51:27;14.98;;;3.20;;
20431;SDS011;10375;49.136;10.366;2022-10-23T15:53:54;6.53;;;2.00;;
20431;SDS011;10375;49.136;10.366;2022-10-23T15:56:22;21.65;;;4.07;;
20431;SDS011;10375;49.136;10.366;2022-10-23T15:58:50;10.27;;;2.78;;
20431;SDS011;10375;49.136;10.366;2022-10-23T16:01:17;31.77;;;3.35;;
20431;SDS011;10375;49.136;10.366;2022-10-23T16:03:45;139.00;;;11.70;;
20431;SDS011;10375;49.136;10.366;2022-10-23T16:06:12;89.30;;;8.95;;
20431;SDS011;10375;49.136;10.366;2022-10-23T16:08:41;21.42;;;3.72;;
20431;SDS011;10375;49.136;10.366;2022-10-23T16:11:13;39.80;;;4.55;;
20431;SDS011;10375;49.136;10.366;2022-10-23T16:13:46;26.13;;;4.15;;
20431;SDS011;10375;49.136;10.366;2022-10-23T16:16:13;19.55;;;2.45;;
20431;SDS011;10375;49.136;10.366;2022-10-23T16:18:41;35.00;;;4.78;;
20431;SDS011;10375;49.136;10.366;2022-10-23T16:21:17;11.10;;;2.47;;
20431;SDS011;10375;49.136;10.366;2022-10-23T16:23:52;7.05;;;1.92;;
20431;SDS011;10375;49.136;10.366;2022-10-23T16:26:20;23.35;;;3.20;;